MVP weather

Fabio Alberto Leon Bentley Airport
Mitú, Vaupés Department, Colombia

Public forecast

Using degrees Celsius for public forecast. Weather courtesy of forecast.io.

Current aviation weather report (METAR) for Fabio Alberto Leon Bentley Airport

Report is more than 6 hours old.

Retrieved 2019/12/03 11:00 UTC (4 months ago):

SKMU 031100Z 00000KT 6000 SCT010 22/22 A2998 RMK/HZ

Closest aviation forecast (TAF) to Fabio Alberto Leon Bentley Airport

Forecast is more than 12 hours old.

Closest forecast is São Gabriel da Cachoeira Airport, 212.4 nm (393.4 km) ESE. Retrieved 2011/08/01 18:04 UTC (9 years ago):

TAF SBUA 011600Z 0118/0206 03005KT 9999 FEW020 TX34/0119Z TN23/0205Z PROB30 0119/0202 12005KT 8000 SHRA SCT020 FEW025TCU RMK PDX